Time;durP1;ratioP1;P1;durP2;ratioP2;P2;SDS_P1;SDS_P2;PMS_P1;PMS_P2;Temp;Humidity;BMP_temperature;BMP_pressure;BME280_temperature;BME280_humidity;BME280_pressure;Samples;Min_cycle;Max_cycle;Signal;HPM_P1;HPM_P2
2022/10/24 00:00:11;;;;;;;;;;;;;;;21.43;29.93;98530.25;5037811;28;933;-81
2022/10/24 00:02:36;;;;;;;;;;;;;;;21.30;30.13;98528.03;5021532;28;1394;-81
2022/10/24 00:05:02;;;;;;;;;;;;;;;21.02;30.62;98519.97;5037706;28;1973;-81
2022/10/24 00:11:06;;;;;;;;;;;;;;;21.40;30.25;98514.09;5037781;28;835;-81
2022/10/24 00:13:32;;;;;;;;;;;;;;;21.36;30.12;98507.72;5021467;28;909;-81
2022/10/24 00:15:58;;;;;;;;;;;;;;;21.27;30.53;98517.53;5021134;28;809;-81
2022/10/24 00:18:23;;;;;;;;;;;;;;;21.17;30.43;98518.50;5037516;28;712;-81
2022/10/24 00:20:48;;;;;;;;;;;;;;;20.97;30.92;98526.13;5027876;28;861;-81
2022/10/24 00:23:14;;;;;;;;;;;;;;;20.99;30.66;98512.38;5042066;28;1248;-80
2022/10/24 00:25:39;;;;;;;;;;;;;;;21.53;30.04;98509.44;5059827;28;1972;-81
2022/10/24 00:28:05;;;;;;;;;;;;;;;21.49;30.06;98511.53;5077441;28;1201;-81
2022/10/24 00:30:30;;;;;;;;;;;;;;;21.29;30.49;98514.25;5060850;28;940;-81
2022/10/24 00:32:56;;;;;;;;;;;;;;;21.25;30.84;98516.38;5060784;28;1424;-81
2022/10/24 00:35:21;;;;;;;;;;;;;;;21.20;30.52;98523.31;5060967;28;1113;-81
2022/10/24 00:37:47;;;;;;;;;;;;;;;21.30;30.32;98516.72;5077073;28;956;-81
2022/10/24 00:40:16;;;;;;;;;;;;;;;20.92;30.84;98509.63;5055725;28;815;-81
2022/10/24 00:42:41;;;;;;;;;;;;;;;21.53;30.32;98506.59;5040365;28;954;-81
2022/10/24 00:48:23;;;;;;;;;;;;;;;21.23;30.72;98499.00;5040514;28;1220;-81
2022/10/24 00:50:49;;;;;;;;;;;;;;;21.16;30.85;98502.78;5056757;28;994;-81
2022/10/24 00:53:14;;;;;;;;;;;;;;;20.97;31.12;98507.13;5040335;28;831;-81
2022/10/24 00:59:14;;;;;;;;;;;;;;;21.47;30.44;98508.34;5045340;28;833;-81
2022/10/24 01:01:40;;;;;;;;;;;;;;;21.14;30.78;98508.06;5053580;28;708;-81
2022/10/24 01:04:05;;;;;;;;;;;;;;;21.13;30.93;98511.31;5053222;28;885;-81
2022/10/24 01:06:40;;;;;;;;;;;;;;;21.17;30.83;98501.53;5053155;28;1914;-81
2022/10/24 01:09:05;;;;;;;;;;;;;;;21.31;30.61;98507.00;5053393;28;1094;-81
2022/10/24 01:15:10;;;;;;;;;;;;;;;21.64;30.14;98507.19;5058810;28;640;-81
2022/10/24 01:17:36;;;;;;;;;;;;;;;21.11;31.25;98508.91;5020013;28;1136;-81
2022/10/24 01:20:08;;;;;;;;;;;;;;;21.03;30.89;98508.22;5020425;28;1229;-81
2022/10/24 01:22:41;;;;;;;;;;;;;;;21.01;31.06;98498.56;5019969;28;986;-81
2022/10/24 01:25:14;;;;;;;;;;;;;;;20.81;31.56;98502.13;4981016;28;1985;-81
2022/10/24 01:27:57;;;;;;;;;;;;;;;21.42;30.98;98500.34;4996808;28;827;-81
2022/10/24 01:30:23;;;;;;;;;;;;;;;21.36;31.13;98504.91;4980406;28;883;-81
2022/10/24 01:32:51;;;;;;;;;;;;;;;21.16;31.22;98499.94;4980722;28;877;-81
2022/10/24 01:35:19;;;;;;;;;;;;;;;21.17;31.05;98501.53;4996766;28;711;-81
2022/10/24 01:37:57;;;;;;;;;;;;;;;20.98;31.60;98496.59;4996903;28;771;-81
2022/10/24 01:40:34;;;;;;;;;;;;;;;21.03;31.42;98496.91;4980648;28;882;-81
2022/10/24 01:43:00;;;;;;;;;;;;;;;20.97;31.16;98500.66;4980637;28;801;-81
2022/10/24 01:45:35;;;;;;;;;;;;;;;21.13;31.15;98502.81;4964361;28;1914;-81
2022/10/24 01:48:01;;;;;;;;;;;;;;;21.49;30.78;98505.88;4990646;28;1253;-81
2022/10/24 01:50:27;;;;;;;;;;;;;;;21.59;30.35;98499.19;5035857;28;832;-81
2022/10/24 01:52:52;;;;;;;;;;;;;;;21.39;30.63;98506.84;5052277;28;1241;-80
2022/10/24 01:55:17;;;;;;;;;;;;;;;21.09;31.22;98500.06;5035963;28;829;-80
2022/10/24 01:57:43;;;;;;;;;;;;;;;21.24;30.72;98507.09;5035896;28;841;-80
2022/10/24 02:00:11;;;;;;;;;;;;;;;21.18;30.92;98510.81;5052827;28;1114;-81
2022/10/24 02:02:43;;;;;;;;;;;;;;;21.08;31.16;98515.44;5046675;28;844;-80
2022/10/24 02:05:11;;;;;;;;;;;;;;;21.52;30.65;98516.34;5057572;28;1972;-81
2022/10/24 02:07:37;;;;;;;;;;;;;;;21.49;30.68;98517.97;5090269;28;1276;-80
2022/10/24 02:10:04;;;;;;;;;;;;;;;21.12;30.94;98510.50;5039859;28;727;-81
2022/10/24 02:12:30;;;;;;;;;;;;;;;21.10;31.07;98524.31;5056435;28;782;-81
2022/10/24 02:15:00;;;;;;;;;;;;;;;20.96;31.06;98525.31;5056314;28;747;-81
2022/10/24 02:17:26;;;;;;;;;;;;;;;21.09;30.90;98522.72;5018592;28;880;-81
2022/10/24 02:19:52;;;;;;;;;;;;;;;21.39;31.03;98513.31;5018809;28;797;-80
2022/10/24 02:22:32;;;;;;;;;;;;;;;21.58;30.45;98525.94;5018805;28;980;-80
2022/10/24 02:25:05;;;;;;;;;;;;;;;21.18;31.03;98520.13;5018605;28;1906;-81
2022/10/24 02:27:36;;;;;;;;;;;;;;;20.95;31.21;98523.72;5018771;28;830;-80
2022/10/24 02:30:06;;;;;;;;;;;;;;;20.96;31.09;98516.03;5018618;28;735;-80
2022/10/24 02:36:07;;;;;;;;;;;;;;;20.97;31.28;98521.25;5035089;28;652;-80
2022/10/24 02:38:34;;;;;;;;;;;;;;;21.26;31.34;98515.94;5018264;28;943;-80
2022/10/24 02:41:00;;;;;;;;;;;;;;;21.54;30.46;98516.69;5018730;28;785;-80
2022/10/24 02:47:00;;;;;;;;;;;;;;;21.02;31.48;98528.47;5034702;28;1100;-81
2022/10/24 02:49:25;;;;;;;;;;;;;;;21.05;31.04;98527.63;5054594;28;786;-81
2022/10/24 02:51:51;;;;;;;;;;;;;;;21.07;30.98;98528.78;5038325;28;1181;-81
2022/10/24 02:54:16;;;;;;;;;;;;;;;21.06;31.79;98523.56;5037785;28;854;-81
2022/10/24 02:56:43;;;;;;;;;;;;;;;21.26;31.21;98510.28;5038188;28;979;-81
2022/10/24 02:59:09;;;;;;;;;;;;;;;21.66;30.25;98524.56;5054598;28;814;-81
2022/10/24 03:01:34;;;;;;;;;;;;;;;21.37;30.76;98521.44;5037855;28;834;-81
2022/10/24 03:03:59;;;;;;;;;;;;;;;21.06;31.15;98524.34;5037291;28;954;-81
2022/10/24 03:06:25;;;;;;;;;;;;;;;20.89;31.38;98521.81;5054438;28;1913;-80
2022/10/24 03:08:50;;;;;;;;;;;;;;;20.98;31.14;98522.06;5038288;28;1395;-81
2022/10/24 03:11:16;;;;;;;;;;;;;;;20.88;31.30;98514.53;5038084;28;829;-81
2022/10/24 03:13:41;;;;;;;;;;;;;;;21.44;31.05;98514.84;5005207;28;1118;-81
2022/10/24 03:16:07;;;;;;;;;;;;;;;21.42;30.77;98511.66;5027048;28;1244;-81
2022/10/24 03:18:32;;;;;;;;;;;;;;;21.72;30.43;98508.69;5034717;28;920;-81
2022/10/24 03:20:58;;;;;;;;;;;;;;;21.74;30.24;98517.53;5034503;28;853;-81
2022/10/24 03:23:27;;;;;;;;;;;;;;;21.32;30.78;98513.44;5050727;28;886;-80
2022/10/24 03:25:53;;;;;;;;;;;;;;;21.03;31.46;98510.25;5039642;28;1910;-81
2022/10/24 03:31:54;;;;;;;;;;;;;;;21.03;31.10;98505.41;5056644;28;624;-80
2022/10/24 03:34:19;;;;;;;;;;;;;;;21.03;31.05;98502.56;5056524;28;731;-80
2022/10/24 03:36:45;;;;;;;;;;;;;;;21.04;31.08;98514.72;5055412;28;802;-81
2022/10/24 03:39:10;;;;;;;;;;;;;;;21.04;31.20;98504.19;5055483;28;1285;-80
2022/10/24 03:41:36;;;;;;;;;;;;;;;21.06;30.96;98496.06;5056533;28;785;-81
2022/10/24 03:44:01;;;;;;;;;;;;;;;20.92;31.52;98501.16;5055231;28;862;-82
2022/10/24 03:46:27;;;;;;;;;;;;;;;20.85;31.40;98501.28;5054891;28;1910;-80
2022/10/24 03:48:52;;;;;;;;;;;;;;;21.14;31.42;98501.59;5037676;28;879;-80
2022/10/24 03:51:17;;;;;;;;;;;;;;;21.31;31.27;98507.00;5056391;28;712;-80
2022/10/24 03:53:43;;;;;;;;;;;;;;;21.09;31.25;98500.06;5056318;28;735;-81
2022/10/24 03:56:08;;;;;;;;;;;;;;;20.99;31.43;98501.06;5056701;28;754;-81
2022/10/24 03:58:34;;;;;;;;;;;;;;;21.20;31.00;98511.22;5074473;28;1098;-80
2022/10/24 04:00:59;;;;;;;;;;;;;;;21.07;31.24;98508.19;5074391;28;939;-80
2022/10/24 04:03:25;;;;;;;;;;;;;;;21.10;30.96;98501.66;5074091;28;762;-81
2022/10/24 04:05:51;;;;;;;;;;;;;;;21.31;31.15;98504.16;5074038;28;1910;-80
2022/10/24 04:08:16;;;;;;;;;;;;;;;21.50;30.82;98507.47;5090743;28;1250;-80
2022/10/24 04:10:41;;;;;;;;;;;;;;;21.22;31.04;98498.22;5097456;28;844;-81
2022/10/24 04:13:07;;;;;;;;;;;;;;;21.10;31.18;98490.34;5097506;28;855;-80
2022/10/24 04:15:32;;;;;;;;;;;;;;;21.05;31.07;98483.16;5099576;28;1162;-81
2022/10/24 04:17:58;;;;;;;;;;;;;;;20.94;31.31;98493.84;5101348;28;1435;-81
2022/10/24 04:20:23;;;;;;;;;;;;;;;21.08;31.02;98487.13;5101187;28;707;-81
2022/10/24 04:22:49;;;;;;;;;;;;;;;21.50;30.73;98490.47;5101094;28;809;-81
2022/10/24 04:25:14;;;;;;;;;;;;;;;21.54;30.56;98486.34;5101254;28;1910;-80
2022/10/24 04:27:40;;;;;;;;;;;;;;;21.16;31.18;98485.78;5101008;28;793;-80
2022/10/24 04:30:06;;;;;;;;;;;;;;;21.04;31.23;98486.41;5083448;28;791;-80
2022/10/24 04:32:32;;;;;;;;;;;;;;;21.14;30.75;98490.28;5061021;28;867;-81
2022/10/24 04:34:57;;;;;;;;;;;;;;;21.14;30.81;98490.28;5078371;28;769;-81
2022/10/24 04:37:23;;;;;;;;;;;;;;;21.06;31.15;98496.06;5076964;28;944;-80
2022/10/24 04:39:48;;;;;;;;;;;;;;;21.47;30.80;98502.69;5060090;28;952;-81
2022/10/24 04:42:14;;;;;;;;;;;;;;;21.50;30.55;98501.78;5059768;28;1285;-81
2022/10/24 04:44:39;;;;;;;;;;;;;;;21.23;31.12;98491.31;5060260;28;1984;-81
2022/10/24 04:47:05;;;;;;;;;;;;;;;21.18;31.00;98491.00;5060264;28;1279;-81
2022/10/24 04:49:30;;;;;;;;;;;;;;;21.08;31.12;98504.09;5077287;28;908;-81
2022/10/24 04:51:56;;;;;;;;;;;;;;;20.99;31.13;98515.19;5060639;28;1236;-81
2022/10/24 04:54:21;;;;;;;;;;;;;;;21.22;31.27;98514.41;5077093;28;797;-81
2022/10/24 04:56:47;;;;;;;;;;;;;;;21.46;30.82;98518.06;5060501;28;937;-81
2022/10/24 04:59:12;;;;;;;;;;;;;;;21.26;31.10;98520.81;5060198;28;766;-81
2022/10/24 05:01:38;;;;;;;;;;;;;;;21.30;31.17;98515.91;5060156;28;1137;-81
2022/10/24 05:04:03;;;;;;;;;;;;;;;21.06;31.10;98529.22;5043298;28;1132;-81
2022/10/24 05:06:29;;;;;;;;;;;;;;;21.04;31.14;98526.03;5059940;28;1987;-81
2022/10/24 05:08:54;;;;;;;;;;;;;;;21.00;31.19;98519.63;5072074;28;1472;-81
2022/10/24 05:11:20;;;;;;;;;;;;;;;21.47;31.02;98517.63;5078691;28;818;-81
2022/10/24 05:13:45;;;;;;;;;;;;;;;21.49;30.74;98520.03;5076701;28;844;-81
2022/10/24 05:16:10;;;;;;;;;;;;;;;21.40;30.67;98520.59;5061075;28;1151;-81
2022/10/24 05:18:36;;;;;;;;;;;;;;;21.23;30.89;98522.44;5078044;28;1102;-81
2022/10/24 05:21:01;;;;;;;;;;;;;;;21.12;31.23;98516.19;5077474;28;976;-81
2022/10/24 05:23:27;;;;;;;;;;;;;;;21.05;31.19;98510.66;5061256;28;1399;-81
2022/10/24 05:25:52;;;;;;;;;;;;;;;20.94;31.17;98515.69;5060537;28;1909;-81
2022/10/24 05:28:18;;;;;;;;;;;;;;;21.37;31.38;98509.31;5076857;28;820;-81
2022/10/24 05:30:43;;;;;;;;;;;;;;;21.64;30.56;98512.88;5078563;28;739;-81
2022/10/24 05:33:09;;;;;;;;;;;;;;;21.61;30.46;98510.13;5077416;28;1098;-80
2022/10/24 05:35:35;;;;;;;;;;;;;;;21.16;30.93;98516.91;5060959;28;1291;-81
2022/10/24 05:38:00;;;;;;;;;;;;;;;21.29;30.93;98520.72;5077168;28;826;-81
2022/10/24 05:40:25;;;;;;;;;;;;;;;21.10;31.09;98521.47;5078095;28;770;-81
2022/10/24 05:42:51;;;;;;;;;;;;;;;21.00;31.07;98522.44;5077954;28;767;-81
2022/10/24 05:45:16;;;;;;;;;;;;;;;21.35;31.47;98517.44;5076545;28;1933;-81
2022/10/24 05:47:42;;;;;;;;;;;;;;;21.50;30.66;98530.09;5076381;28;1191;-81
2022/10/24 05:50:08;;;;;;;;;;;;;;;21.41;30.69;98541.22;5076691;28;813;-81
2022/10/24 05:52:35;;;;;;;;;;;;;;;21.10;31.65;98541.28;5076422;28;755;-81
2022/10/24 05:55:02;;;;;;;;;;;;;;;21.21;31.29;98547.56;5078011;28;921;-81
2022/10/24 05:57:28;;;;;;;;;;;;;;;21.17;31.08;98558.13;5077479;28;877;-81
2022/10/24 05:59:54;;;;;;;;;;;;;;;21.05;31.33;98550.25;5076412;28;754;-81
2022/10/24 06:02:19;;;;;;;;;;;;;;;21.09;31.19;98553.84;5077589;28;759;-81
2022/10/24 06:04:45;;;;;;;;;;;;;;;21.20;31.56;98550.84;5076535;28;1976;-81
2022/10/24 06:07:10;;;;;;;;;;;;;;;21.58;30.71;98554.25;5059970;28;1265;-81
2022/10/24 06:09:36;;;;;;;;;;;;;;;21.14;31.35;98559.00;5059868;28;798;-80
2022/10/24 06:12:01;;;;;;;;;;;;;;;21.04;31.53;98554.31;5077613;28;730;-81
2022/10/24 06:14:27;;;;;;;;;;;;;;;21.04;31.50;98562.81;5077595;28;789;-81
2022/10/24 06:16:52;;;;;;;;;;;;;;;21.01;31.67;98555.97;5076100;28;854;-81
2022/10/24 06:19:18;;;;;;;;;;;;;;;21.03;31.52;98564.00;5076112;28;866;-81
2022/10/24 06:21:43;;;;;;;;;;;;;;;21.06;31.26;98557.50;5055092;28;951;-81
2022/10/24 06:24:09;;;;;;;;;;;;;;;20.79;32.02;98561.13;5055441;28;1117;-81
2022/10/24 06:26:34;;;;;;;;;;;;;;;21.38;31.21;98564.72;5055039;28;1906;-80
2022/10/24 06:29:00;;;;;;;;;;;;;;;21.42;30.88;98574.75;5038710;28;826;-80
2022/10/24 06:31:25;;;;;;;;;;;;;;;21.24;31.39;98577.03;5022147;28;1176;-80
2022/10/24 06:37:25;;;;;;;;;;;;;;;20.90;31.79;98574.31;5054636;28;940;-80
2022/10/24 06:39:50;;;;;;;;;;;;;;;20.98;31.43;98564.50;5054102;28;790;-80
2022/10/24 06:42:16;;;;;;;;;;;;;;;21.08;31.31;98577.69;5038297;28;1113;-81
2022/10/24 06:44:41;;;;;;;;;;;;;;;21.30;31.22;98567.66;5038246;28;1905;-81
2022/10/24 06:47:07;;;;;;;;;;;;;;;21.61;30.74;98576.06;5038221;28;1065;-81
2022/10/24 06:49:32;;;;;;;;;;;;;;;21.02;31.60;98573.72;5054620;28;873;-81
2022/10/24 06:55:33;;;;;;;;;;;;;;;20.87;31.45;98572.34;5082886;28;846;-80
2022/10/24 06:57:58;;;;;;;;;;;;;;;21.00;31.74;98576.19;5076042;28;810;-80
2022/10/24 07:00:24;;;;;;;;;;;;;;;21.45;30.83;98568.22;5059216;28;1098;-81
2022/10/24 07:02:49;;;;;;;;;;;;;;;21.52;30.53;98573.75;5076490;28;818;-81
2022/10/24 07:05:15;;;;;;;;;;;;;;;21.13;30.92;98573.56;5076581;28;1910;-80
2022/10/24 07:07:41;;;;;;;;;;;;;;;21.00;31.09;98576.19;5082762;28;1161;-80
2022/10/24 07:10:07;;;;;;;;;;;;;;;20.92;31.36;98581.16;5084152;28;1228;-81
2022/10/24 07:12:32;;;;;;;;;;;;;;;20.95;31.17;98580.31;5086028;28;1275;-80
2022/10/24 07:14:57;;;;;;;;;;;;;;;21.21;31.20;98581.53;5077193;28;1346;-80
2022/10/24 07:17:23;;;;;;;;;;;;;;;21.30;30.96;98581.81;5075513;28;806;-80
2022/10/24 07:19:52;;;;;;;;;;;;;;;21.19;30.79;98572.69;5075609;28;857;-80
2022/10/24 07:22:18;;;;;;;;;;;;;;;21.03;30.99;98581.78;5075424;28;782;-80
2022/10/24 07:24:44;;;;;;;;;;;;;;;21.21;30.63;98583.56;5076465;28;1910;-81
2022/10/24 07:27:10;;;;;;;;;;;;;;;21.13;30.96;98584.88;5076840;28;702;-82
2022/10/24 07:29:37;;;;;;;;;;;;;;;20.88;31.07;98582.41;5076504;28;747;-81
2022/10/24 07:32:02;;;;;;;;;;;;;;;21.22;30.98;98583.13;5075626;28;817;-80
2022/10/24 07:34:28;;;;;;;;;;;;;;;21.45;30.12;98582.38;5075334;28;1123;-81
2022/10/24 07:36:53;;;;;;;;;;;;;;;21.11;30.84;98582.50;5076721;28;813;-81
2022/10/24 07:39:19;;;;;;;;;;;;;;;21.10;30.94;98582.94;5058642;28;790;-80
2022/10/24 07:41:44;;;;;;;;;;;;;;;21.01;31.00;98589.13;5058423;28;759;-80
2022/10/24 07:44:10;;;;;;;;;;;;;;;21.14;30.78;98586.47;5058856;28;1197;-80
2022/10/24 07:46:35;;;;;;;;;;;;;;;20.84;31.04;98590.19;5075196;28;1906;-80
2022/10/24 07:49:01;;;;;;;;;;;;;;;21.03;30.99;98587.44;5058489;28;778;-80
2022/10/24 07:55:01;;;;;;;;;;;;;;;21.36;30.36;98581.34;5080376;28;608;-80
2022/10/24 07:57:27;;;;;;;;;;;;;;;21.12;30.67;98592.56;5113093;28;759;-81
2022/10/24 07:59:53;;;;;;;;;;;;;;;20.90;31.10;98594.94;5079231;28;1134;-81
2022/10/24 08:02:18;;;;;;;;;;;;;;;20.92;31.04;98591.66;5080864;28;1109;-80
2022/10/24 08:04:44;;;;;;;;;;;;;;;20.91;30.92;98584.41;5088460;28;1905;-81
2022/10/24 08:07:12;;;;;;;;;;;;;;;21.34;30.53;98587.41;5089348;28;1247;-81
2022/10/24 08:09:38;;;;;;;;;;;;;;;21.62;29.88;98588.97;5089618;28;1276;-81
2022/10/24 08:12:03;;;;;;;;;;;;;;;21.24;30.38;98580.69;5048416;28;1315;-81
2022/10/24 08:14:28;;;;;;;;;;;;;;;21.13;30.81;98582.06;5078950;28;1160;-81
2022/10/24 08:16:54;;;;;;;;;;;;;;;21.17;30.63;98577.16;5078983;28;763;-81
2022/10/24 08:19:19;;;;;;;;;;;;;;;21.08;30.50;98577.69;5078957;28;877;-80
2022/10/24 08:21:45;;;;;;;;;;;;;;;20.87;30.75;98572.34;5078568;28;857;-81
2022/10/24 08:24:10;;;;;;;;;;;;;;;21.45;29.72;98565.41;5079829;28;731;-81
2022/10/24 08:30:11;;;;;;;;;;;;;;;20.97;30.89;98562.91;5079737;28;652;-80
2022/10/24 08:32:37;;;;;;;;;;;;;;;20.90;30.84;98571.50;5112216;28;837;-80
2022/10/24 08:35:03;;;;;;;;;;;;;;;21.09;30.40;98570.81;5060770;28;948;-80
2022/10/24 08:37:28;;;;;;;;;;;;;;;20.99;30.75;98575.41;5079549;28;783;-80
2022/10/24 08:39:54;;;;;;;;;;;;;;;21.44;30.08;98560.16;5082644;28;1277;-81
2022/10/24 08:42:20;;;;;;;;;;;;;;;21.50;30.00;98564.09;5052366;28;1323;-81
2022/10/24 08:44:46;;;;;;;;;;;;;;;21.07;30.64;98559.91;5052487;28;1976;-81
2022/10/24 08:47:20;;;;;;;;;;;;;;;20.90;30.60;98563.00;5111627;28;1110;-80
2022/10/24 08:49:54;;;;;;;;;;;;;;;21.11;30.34;98547.75;5083303;28;1209;-80
2022/10/24 08:52:33;;;;;;;;;;;;;;;20.99;30.63;98557.63;5088852;28;1224;-80
2022/10/24 08:55:02;;;;;;;;;;;;;;;20.89;30.64;98569.91;5081355;28;858;-80
2022/10/24 08:57:28;;;;;;;;;;;;;;;20.88;30.85;98562.63;5081462;28;1185;-80
2022/10/24 08:59:55;;;;;;;;;;;;;;;21.38;29.81;98562.69;5098166;28;719;-80
2022/10/24 09:02:22;;;;;;;;;;;;;;;21.32;29.96;98568.03;5080595;28;1137;-81
2022/10/24 09:04:49;;;;;;;;;;;;;;;21.25;29.90;98570.94;5097990;28;1969;-81
2022/10/24 09:11:00;;;;;;;;;;;;;;;20.80;30.75;98562.75;5088993;28;1089;-81
2022/10/24 09:13:26;;;;;;;;;;;;;;;20.79;31.02;98549.81;5080068;28;1205;-81
2022/10/24 09:15:51;;;;;;;;;;;;;;;20.89;30.83;98555.75;5087091;28;1305;-80
2022/10/24 09:18:20;;;;;;;;;;;;;;;20.99;30.43;98551.97;5085792;28;1208;-81
2022/10/24 09:20:45;;;;;;;;;;;;;;;21.61;29.56;98553.41;5087880;28;1216;-81
2022/10/24 09:23:11;;;;;;;;;;;;;;;21.59;29.56;98558.66;5084808;28;1376;-81
2022/10/24 09:25:36;;;;;;;;;;;;;;;21.00;30.31;98553.56;5078704;28;1898;-80
2022/10/24 09:28:02;;;;;;;;;;;;;;;20.93;30.45;98545.97;5083816;28;1219;-81
2022/10/24 09:30:28;;;;;;;;;;;;;;;20.99;30.65;98544.28;5085249;28;1307;-81
2022/10/24 09:32:54;;;;;;;;;;;;;;;20.89;30.49;98538.78;5082271;28;1170;-81
2022/10/24 09:35:23;;;;;;;;;;;;;;;20.95;30.56;98539.91;5048075;28;1181;-81
2022/10/24 09:37:50;;;;;;;;;;;;;;;21.47;29.71;98536.66;5039708;28;849;-81
2022/10/24 09:40:22;;;;;;;;;;;;;;;21.60;29.62;98543.28;5042430;28;1094;-81
2022/10/24 09:42:49;;;;;;;;;;;;;;;21.19;30.21;98544.38;5042890;28;1552;-80
2022/10/24 09:45:19;;;;;;;;;;;;;;;20.98;30.39;98533.38;5044974;28;1902;-81
2022/10/24 09:47:44;;;;;;;;;;;;;;;20.94;30.54;98527.78;5027339;28;1534;-80
2022/10/24 09:50:18;;;;;;;;;;;;;;;20.95;30.47;98528.59;5028520;28;1296;-80
2022/10/24 09:52:43;;;;;;;;;;;;;;;20.97;30.52;98531.78;5025918;28;1234;-80
2022/10/24 09:55:15;;;;;;;;;;;;;;;20.69;31.00;98525.34;5042275;28;1253;-80
2022/10/24 09:57:41;;;;;;;;;;;;;;;21.19;30.13;98516.06;5025371;28;1250;-81
2022/10/24 10:00:10;;;;;;;;;;;;;;;21.36;29.98;98524.72;5043418;28;1225;-80
2022/10/24 10:02:36;;;;;;;;;;;;;;;21.33;29.91;98527.16;5023605;28;1398;-80
2022/10/24 10:05:02;;;;;;;;;;;;;;;21.13;30.17;98514.94;5027350;28;1961;-81
2022/10/24 10:07:34;;;;;;;;;;;;;;;21.13;30.28;98512.09;5057935;28;1222;-81
2022/10/24 10:10:01;;;;;;;;;;;;;;;20.94;30.30;98518.50;5059150;28;818;-81
2022/10/24 10:12:40;;;;;;;;;;;;;;;21.02;30.40;98514.31;5058588;28;711;-80
2022/10/24 10:15:25;;;;;;;;;;;;;;;20.79;30.51;98510.22;5058861;28;968;-80
2022/10/24 10:21:25;;;;;;;;;;;;;;;21.20;29.92;98506.34;5077228;28;696;-81
2022/10/24 10:23:54;;;;;;;;;;;;;;;21.05;30.15;98502.16;5076171;28;723;-80
2022/10/24 10:26:29;;;;;;;;;;;;;;;20.97;30.42;98498.63;5076412;28;1987;-81
2022/10/24 10:28:55;;;;;;;;;;;;;;;20.85;30.51;98499.25;5077063;28;858;-80
2022/10/24 10:34:58;;;;;;;;;;;;;;;20.81;30.43;98502.13;5077269;28;665;-80
2022/10/24 10:37:23;;;;;;;;;;;;;;;20.88;30.62;98511.72;5038198;28;1176;-80
2022/10/24 10:39:54;;;;;;;;;;;;;;;21.57;29.61;98510.19;5037946;28;1086;-81
2022/10/24 10:42:38;;;;;;;;;;;;;;;21.53;29.37;98506.59;5054919;28;982;-81
2022/10/24 10:45:16;;;;;;;;;;;;;;;21.07;30.14;98502.50;5054616;28;1972;-80
2022/10/24 10:48:00;;;;;;;;;;;;;;;20.77;30.81;98495.72;5054566;28;1216;-80
2022/10/24 10:50:36;;;;;;;;;;;;;;;20.79;30.53;98484.78;5038277;28;1212;-80
2022/10/24 10:53:10;;;;;;;;;;;;;;;20.79;30.55;98481.94;5038112;28;863;-80
2022/10/24 10:55:59;;;;;;;;;;;;;;;20.95;30.20;98469.19;5038042;28;763;-81
2022/10/24 10:58:27;;;;;;;;;;;;;;;21.25;29.79;98474.72;4998133;28;989;-81
2022/10/24 11:00:53;;;;;;;;;;;;;;;21.16;30.03;98473.69;4982507;28;1267;-80
2022/10/24 11:03:19;;;;;;;;;;;;;;;20.99;30.24;98467.09;5015121;28;975;-80
2022/10/24 11:05:51;;;;;;;;;;;;;;;20.88;30.70;98477.75;4998120;28;1985;-81
2022/10/24 11:08:22;;;;;;;;;;;;;;;20.87;30.77;98476.16;5023679;28;1057;-82
2022/10/24 11:10:51;;;;;;;;;;;;;;;21.02;30.24;98472.69;5034601;28;943;-82
2022/10/24 11:13:18;;;;;;;;;;;;;;;20.86;30.72;98474.56;5010299;28;1592;-83
2022/10/24 11:15:45;;;;;;;;;;;;;;;21.10;30.42;98470.53;4998449;28;1555;-82
2022/10/24 11:18:15;;;;;;;;;;;;;;;20.89;30.68;98473.72;4982221;28;1132;-81
2022/10/24 11:20:45;;;;;;;;;;;;;;;21.03;30.46;98474.28;4982220;28;1245;-81
2022/10/24 11:23:12;;;;;;;;;;;;;;;20.98;30.69;98471.13;4998067;28;970;-82
2022/10/24 11:25:56;;;;;;;;;;;;;;;20.75;31.10;98464.22;4984198;28;2033;-82
2022/10/24 11:28:26;;;;;;;;;;;;;;;21.17;30.33;98473.25;5001926;28;1178;-80
2022/10/24 11:30:53;;;;;;;;;;;;;;;21.38;29.77;98459.97;4963460;28;927;-81
2022/10/24 11:33:25;;;;;;;;;;;;;;;21.01;30.33;98459.75;4979303;28;806;-81
2022/10/24 11:36:07;;;;;;;;;;;;;;;21.06;30.69;98461.31;5033283;28;1007;-81
2022/10/24 11:38:34;;;;;;;;;;;;;;;21.04;30.57;98458.91;5021388;28;1241;-80
2022/10/24 11:41:14;;;;;;;;;;;;;;;21.00;30.51;98451.72;5005071;28;1215;-81
2022/10/24 11:43:40;;;;;;;;;;;;;;;20.85;30.63;98450.34;5021380;28;869;-80
2022/10/24 11:46:24;;;;;;;;;;;;;;;21.35;29.95;98449.50;5021480;28;1914;-80
2022/10/24 11:48:54;;;;;;;;;;;;;;;21.38;29.77;98448.66;5004653;28;1154;-81
2022/10/24 11:51:28;;;;;;;;;;;;;;;21.04;30.32;98449.63;5005119;28;810;-81
2022/10/24 11:53:56;;;;;;;;;;;;;;;20.67;30.87;98445.78;5004991;28;1198;-82
2022/10/24 11:56:24;;;;;;;;;;;;;;;20.88;30.55;98449.47;5021374;28;822;-82
2022/10/24 11:58:56;;;;;;;;;;;;;;;20.90;30.51;98447.03;5021419;28;975;-81
2022/10/24 12:01:44;;;;;;;;;;;;;;;21.37;29.82;98442.19;5030290;28;906;-81
2022/10/24 12:04:28;;;;;;;;;;;;;;;21.47;29.52;98441.19;5077433;28;965;-81
2022/10/24 12:07:12;;;;;;;;;;;;;;;21.14;29.97;98445.81;5077322;28;1976;-81
2022/10/24 12:09:50;;;;;;;;;;;;;;;20.92;30.56;98433.25;5061620;28;1113;-80
2022/10/24 12:12:31;;;;;;;;;;;;;;;20.69;30.83;98437.69;5062052;28;785;-80
2022/10/24 12:15:00;;;;;;;;;;;;;;;20.91;30.57;98432.47;5062283;28;1114;-81
2022/10/24 12:17:31;;;;;;;;;;;;;;;21.00;30.51;98431.91;5061814;28;794;-81
2022/10/24 12:19:58;;;;;;;;;;;;;;;21.20;30.05;98424.28;5079732;28;754;-81
2022/10/24 12:22:26;;;;;;;;;;;;;;;21.48;29.62;98425.78;5095671;28;1109;-80
2022/10/24 12:28:26;;;;;;;;;;;;;;;21.20;30.00;98432.78;5079668;28;660;-81
2022/10/24 12:31:08;;;;;;;;;;;;;;;21.12;30.20;98427.66;5112635;28;758;-80
2022/10/24 12:33:34;;;;;;;;;;;;;;;21.15;30.11;98430.44;5078316;28;850;-80
2022/10/24 12:39:35;;;;;;;;;;;;;;;21.11;30.20;98424.03;5079424;28;620;-80
2022/10/24 12:42:01;;;;;;;;;;;;;;;21.13;29.87;98427.22;5061684;28;1137;-81
2022/10/24 12:44:32;;;;;;;;;;;;;;;21.43;29.79;98425.50;5078226;28;767;-81
2022/10/24 12:46:58;;;;;;;;;;;;;;;21.53;29.67;98416.00;5079208;28;1971;-80
2022/10/24 12:49:30;;;;;;;;;;;;;;;21.11;30.20;98412.72;5111952;28;758;-80
2022/10/24 12:51:56;;;;;;;;;;;;;;;21.04;30.42;98412.84;5078031;28;786;-80
2022/10/24 12:54:37;;;;;;;;;;;;;;;20.99;30.23;98416.19;5060264;28;876;-80
2022/10/24 12:57:03;;;;;;;;;;;;;;;20.98;30.38;98423.03;5060586;28;824;-80
2022/10/24 12:59:29;;;;;;;;;;;;;;;20.80;30.50;98412.84;5076464;28;928;-80
2022/10/24 13:02:26;;;;;;;;;;;;;;;20.88;30.54;98415.53;5023256;28;1158;-82
2022/10/24 13:05:04;;;;;;;;;;;;;;;21.27;29.99;98414.84;5000331;28;1910;-82
2022/10/24 13:07:35;;;;;;;;;;;;;;;21.38;29.61;98409.00;5000273;28;843;-81
2022/10/24 13:10:00;;;;;;;;;;;;;;;21.17;30.04;98413.00;5000487;28;1215;-81
2022/10/24 13:12:32;;;;;;;;;;;;;;;20.98;30.23;98408.91;5000390;28;1087;-81
2022/10/24 13:15:15;;;;;;;;;;;;;;;21.01;30.27;98408.03;5000112;28;1307;-81
2022/10/24 13:17:47;;;;;;;;;;;;;;;20.93;30.45;98409.38;5016626;28;936;-81
2022/10/24 13:20:17;;;;;;;;;;;;;;;21.39;29.77;98410.59;5016488;28;981;-81
2022/10/24 13:22:43;;;;;;;;;;;;;;;21.65;29.34;98395.50;5000448;28;731;-81
2022/10/24 13:25:32;;;;;;;;;;;;;;;21.09;30.34;98406.69;4984024;28;1918;-81
2022/10/24 13:28:21;;;;;;;;;;;;;;;21.09;30.44;98406.69;4984711;28;909;-81
2022/10/24 13:31:06;;;;;;;;;;;;;;;20.98;30.29;98403.25;4977139;28;993;-81
2022/10/24 13:33:32;;;;;;;;;;;;;;;20.94;30.21;98402.53;4978551;28;996;-81
2022/10/24 13:36:13;;;;;;;;;;;;;;;20.87;30.35;98403.44;4993627;28;1195;-81
2022/10/24 13:38:55;;;;;;;;;;;;;;;21.09;30.50;98392.56;4997758;28;1283;-81
2022/10/24 13:41:40;;;;;;;;;;;;;;;21.38;29.75;98392.03;5014205;28;1023;-81
2022/10/24 13:44:26;;;;;;;;;;;;;;;21.38;29.44;98397.69;5035837;28;1123;-81
2022/10/24 13:47:09;;;;;;;;;;;;;;;21.10;30.20;98394.16;5002772;28;1979;-81
2022/10/24 13:49:44;;;;;;;;;;;;;;;20.79;30.63;98397.09;5035801;28;879;-81
2022/10/24 13:52:14;;;;;;;;;;;;;;;20.74;30.76;98394.78;5035793;28;751;-81
2022/10/24 13:54:41;;;;;;;;;;;;;;;20.94;30.56;98396.88;5002809;28;895;-81
2022/10/24 13:57:25;;;;;;;;;;;;;;;21.20;30.11;98393.16;5003016;28;1138;-82
2022/10/24 13:59:58;;;;;;;;;;;;;;;21.55;29.34;98390.88;5019649;28;831;-81
2022/10/24 14:02:25;;;;;;;;;;;;;;;21.14;29.85;98389.22;5002693;28;1010;-81
2022/10/24 14:04:50;;;;;;;;;;;;;;;20.95;30.55;98389.97;5019134;28;1909;-81